Terminal Aerodrome Forecast
Issued by NWS

Current Version | Previous Version | Text Only | Print | Product List | Glossary Off
Versions: 1 2 3 4 5 6 7 8 9 10 11 12 13 14 15 16 17

598
FTUS41 KILN 170046 AAA
TAFLCK
TAF AMD
KLCK 170046Z 1701/1724 27014G22KT P6SM VCSH SCT025 OVC040
     FM170400 25014KT P6SM BKN020 OVC040
     FM171000 26014G20KT P6SM BKN020 OVC035
     FM171400 27017G24KT P6SM BKN025 OVC035
     FM172300 28012KT P6SM SCT250=

USA.gov is the U.S. government's official web portal to all federal, state and local government web resources and services.